createdAt,value
2018-12-02T00:00:38.054Z,1.94
2018-12-02T00:03:10.818Z,1.90
2018-12-02T00:05:42.990Z,1.83
2018-12-02T00:08:15.108Z,1.85
2018-12-02T00:10:47.227Z,1.87
2018-12-02T00:13:19.255Z,1.83
2018-12-02T00:15:51.414Z,1.84
2018-12-02T00:18:23.483Z,1.82
2018-12-02T00:20:55.614Z,1.87
2018-12-02T00:23:27.702Z,1.83
2018-12-02T00:25:59.824Z,1.86
2018-12-02T00:28:32.100Z,1.86
2018-12-02T00:31:04.641Z,1.89
2018-12-02T00:33:36.729Z,1.85
2018-12-02T00:36:08.833Z,1.83
2018-12-02T00:38:41.010Z,1.86
2018-12-02T00:41:13.250Z,1.88
2018-12-02T00:43:45.324Z,1.77
2018-12-02T00:46:17.420Z,1.79
2018-12-02T00:48:49.491Z,1.82
2018-12-02T00:51:21.608Z,1.77
2018-12-02T00:53:53.702Z,1.80
2018-12-02T00:56:24.954Z,1.79
2018-12-02T00:58:57.034Z,1.72
2018-12-02T01:01:29.091Z,1.72
2018-12-02T01:04:01.180Z,1.75
2018-12-02T01:06:33.300Z,1.76
2018-12-02T01:09:06.149Z,1.75
2018-12-02T01:11:38.244Z,1.75
2018-12-02T01:14:10.422Z,1.77
2018-12-02T01:16:42.554Z,1.77
2018-12-02T01:19:14.645Z,1.77
2018-12-02T01:21:46.726Z,1.71
2018-12-02T01:24:18.810Z,1.71
2018-12-02T01:26:50.896Z,1.73
2018-12-02T01:29:22.971Z,1.75
2018-12-02T01:31:55.038Z,1.71
2018-12-02T01:34:27.234Z,1.71
2018-12-02T01:36:59.348Z,1.61
2018-12-02T01:39:31.437Z,1.64
2018-12-02T01:42:03.557Z,1.62
2018-12-02T01:44:35.645Z,1.69
2018-12-02T01:47:07.699Z,1.67
2018-12-02T01:49:39.818Z,1.64
2018-12-02T01:52:11.906Z,1.72
2018-12-02T01:54:44.111Z,1.72
2018-12-02T01:57:16.292Z,1.77
2018-12-02T01:59:48.385Z,1.75
2018-12-02T02:02:20.504Z,1.78
2018-12-02T02:04:52.620Z,1.74
2018-12-02T02:07:24.694Z,1.74
2018-12-02T02:09:56.788Z,1.73
2018-12-02T02:12:28.896Z,1.72
2018-12-02T02:15:01.103Z,1.73
2018-12-02T02:17:33.144Z,1.72
2018-12-02T02:20:08.240Z,1.68
2018-12-02T02:22:40.310Z,1.67
2018-12-02T02:25:13.353Z,1.62
2018-12-02T02:27:47.589Z,1.68
2018-12-02T02:30:20.967Z,1.61
2018-12-02T02:32:53.054Z,1.67
2018-12-02T02:35:25.107Z,1.59
2018-12-02T02:37:57.477Z,1.67
2018-12-02T02:40:29.892Z,1.64
2018-12-02T02:43:01.952Z,1.59
2018-12-02T02:45:34.096Z,1.63
2018-12-02T02:48:06.192Z,1.61
2018-12-02T02:50:38.265Z,1.65
2018-12-02T02:53:10.350Z,1.65
2018-12-02T02:55:42.421Z,1.67
2018-12-02T02:58:14.484Z,1.64
2018-12-02T03:00:46.545Z,1.56
2018-12-02T03:03:18.626Z,1.61
2018-12-02T03:05:50.692Z,1.59
2018-12-02T03:08:22.743Z,1.58
2018-12-02T03:10:54.849Z,1.57
2018-12-02T03:13:26.945Z,1.62
2018-12-02T03:15:59.037Z,1.65
2018-12-02T03:18:31.051Z,1.64
2018-12-02T03:21:03.235Z,1.65
2018-12-02T03:23:35.317Z,1.62
2018-12-02T03:26:07.354Z,1.65
2018-12-02T03:28:39.435Z,1.72
2018-12-02T03:31:11.540Z,1.66
2018-12-02T03:33:43.609Z,1.64
2018-12-02T03:36:15.684Z,1.63
2018-12-02T03:38:47.819Z,1.59
2018-12-02T03:41:19.895Z,1.66
2018-12-02T03:43:51.977Z,1.59
2018-12-02T03:46:24.061Z,1.60
2018-12-02T03:48:56.153Z,1.65
2018-12-02T03:51:28.227Z,1.56
2018-12-02T03:54:00.338Z,1.64
2018-12-02T03:56:32.430Z,1.54
2018-12-02T03:59:05.212Z,1.65
2018-12-02T04:01:37.275Z,1.60
2018-12-02T04:04:09.377Z,1.60
2018-12-02T04:06:41.427Z,1.55
2018-12-02T04:09:13.516Z,1.66
2018-12-02T04:11:45.646Z,1.57
2018-12-02T04:14:17.770Z,1.63
2018-12-02T04:16:49.969Z,1.56
2018-12-02T04:19:22.242Z,1.58
2018-12-02T04:21:54.349Z,1.61
2018-12-02T04:24:26.457Z,1.58
2018-12-02T04:26:58.567Z,1.63
2018-12-02T04:29:30.667Z,1.57
2018-12-02T04:32:02.774Z,1.56
2018-12-02T04:34:34.859Z,1.63
2018-12-02T04:37:06.966Z,1.57
2018-12-02T04:39:39.123Z,1.58
2018-12-02T04:42:11.257Z,1.61
2018-12-02T04:44:43.389Z,1.63
2018-12-02T04:47:15.618Z,1.63
2018-12-02T04:49:47.734Z,1.63
2018-12-02T04:52:19.958Z,1.66
2018-12-02T04:54:52.059Z,1.56
2018-12-02T04:57:24.216Z,1.50
2018-12-02T04:59:56.300Z,1.54
2018-12-02T05:02:28.586Z,1.60
2018-12-02T05:05:00.650Z,1.59
2018-12-02T05:07:32.758Z,1.59
2018-12-02T05:10:08.343Z,1.61
2018-12-02T05:12:40.745Z,1.59
2018-12-02T05:15:13.697Z,1.64
2018-12-02T05:17:45.775Z,1.68
2018-12-02T05:20:20.701Z,1.69
2018-12-02T05:22:52.845Z,1.64
2018-12-02T05:25:24.940Z,1.63
2018-12-02T05:27:57.043Z,1.62
2018-12-02T05:30:29.187Z,1.66
2018-12-02T05:33:01.589Z,1.65
2018-12-02T05:35:33.694Z,1.57
2018-12-02T05:38:06.264Z,1.67
2018-12-02T05:40:38.354Z,1.57
2018-12-02T05:43:10.420Z,1.59
2018-12-02T05:45:42.509Z,1.61
2018-12-02T05:48:14.609Z,1.51
2018-12-02T05:50:46.737Z,1.51
2018-12-02T05:53:18.820Z,1.47
2018-12-02T05:55:50.906Z,1.47
2018-12-02T05:58:22.965Z,1.52
2018-12-02T06:00:55.084Z,1.56
2018-12-02T06:03:27.218Z,1.49
2018-12-02T06:05:59.317Z,1.46
2018-12-02T06:08:31.417Z,1.48
2018-12-02T06:11:03.682Z,1.43
2018-12-02T06:13:35.757Z,1.42
2018-12-02T06:16:07.818Z,1.44
2018-12-02T06:18:39.909Z,1.45
2018-12-02T06:21:11.974Z,1.39
2018-12-02T06:23:44.049Z,1.42
2018-12-02T06:26:16.171Z,1.44
2018-12-02T06:28:48.358Z,1.42
2018-12-02T06:31:20.469Z,1.46
2018-12-02T06:33:52.574Z,1.45
2018-12-02T06:36:24.607Z,1.41
2018-12-02T06:38:56.653Z,1.43
2018-12-02T06:41:28.702Z,1.45
2018-12-02T06:44:00.784Z,1.50
2018-12-02T06:46:33.025Z,1.38
2018-12-02T06:49:05.110Z,1.41
2018-12-02T06:51:37.248Z,1.44
2018-12-02T06:54:09.356Z,1.43
2018-12-02T06:56:42.418Z,1.38
2018-12-02T06:59:25.021Z,1.41
2018-12-02T07:02:05.555Z,1.43
2018-12-02T07:04:39.374Z,1.42
2018-12-02T07:07:11.433Z,1.39
2018-12-02T07:09:43.540Z,1.45
2018-12-02T07:12:15.635Z,1.43
2018-12-02T07:14:47.728Z,1.47
2018-12-02T07:17:19.795Z,1.47
2018-12-02T07:19:51.867Z,1.45
2018-12-02T07:22:25.945Z,1.54
2018-12-02T07:24:58.043Z,1.48
2018-12-02T07:27:30.245Z,1.50
2018-12-02T07:30:02.406Z,1.60
2018-12-02T07:32:34.474Z,1.63
2018-12-02T07:35:09.134Z,1.68
2018-12-02T07:37:44.198Z,1.65
2018-12-02T07:40:19.829Z,1.67
2018-12-02T07:42:51.874Z,1.71
2018-12-02T07:45:23.939Z,1.69
2018-12-02T07:47:56.995Z,1.73
2018-12-02T07:50:29.130Z,1.66
2018-12-02T07:53:01.241Z,1.67
2018-12-02T07:55:33.273Z,1.71
2018-12-02T07:58:10.813Z,1.74
2018-12-02T08:00:44.383Z,1.71
2018-12-02T08:03:16.449Z,1.73
2018-12-02T08:05:48.509Z,1.74
2018-12-02T08:08:20.683Z,1.76
2018-12-02T08:10:52.890Z,1.76
2018-12-02T08:13:24.962Z,1.73
2018-12-02T08:15:57.124Z,1.73
2018-12-02T08:18:29.907Z,1.80
2018-12-02T08:21:02.080Z,1.89
2018-12-02T08:23:34.267Z,1.88
2018-12-02T08:26:06.390Z,1.80
2018-12-02T08:28:39.635Z,1.78
2018-12-02T08:31:12.496Z,1.78
2018-12-02T08:33:44.624Z,1.77
2018-12-02T08:36:16.690Z,1.77
2018-12-02T08:38:48.795Z,1.72
2018-12-02T08:41:20.849Z,1.70
2018-12-02T08:43:52.931Z,1.77
2018-12-02T08:46:25.003Z,1.72
2018-12-02T08:48:57.091Z,1.67
2018-12-02T08:51:29.222Z,1.65
2018-12-02T08:54:01.394Z,1.71
2018-12-02T08:56:33.509Z,1.71
2018-12-02T08:59:05.600Z,1.69
2018-12-02T09:01:37.697Z,1.75
2018-12-02T09:04:09.848Z,1.79
2018-12-02T09:06:42.875Z,1.89
2018-12-02T09:09:15.022Z,1.79
2018-12-02T09:11:47.204Z,1.73
2018-12-02T09:14:19.310Z,1.81
2018-12-02T09:16:51.454Z,1.79
2018-12-02T09:19:23.539Z,1.85
2018-12-02T09:21:55.642Z,1.89
2018-12-02T09:24:27.794Z,1.94
2018-12-02T09:27:05.233Z,1.90
2018-12-02T09:29:37.324Z,1.88
2018-12-02T09:32:09.400Z,1.88
2018-12-02T09:34:41.453Z,1.89
2018-12-02T09:37:13.514Z,1.90
2018-12-02T09:39:46.287Z,1.91
2018-12-02T09:42:18.337Z,1.90
2018-12-02T09:44:50.415Z,1.85
2018-12-02T09:47:22.517Z,1.88
2018-12-02T09:49:54.603Z,1.89
2018-12-02T09:52:26.671Z,1.61
2018-12-02T09:54:58.756Z,2.04
2018-12-02T09:57:30.833Z,2.11
2018-12-02T10:00:03.881Z,2.05
2018-12-02T10:02:36.057Z,2.09
2018-12-02T10:05:08.348Z,2.00
2018-12-02T10:07:40.477Z,1.93
2018-12-02T10:10:22.848Z,2.04
2018-12-02T10:12:56.230Z,2.03
2018-12-02T10:15:28.283Z,2.02
2018-12-02T10:18:00.366Z,2.14
2018-12-02T10:20:32.408Z,2.11
2018-12-02T10:23:04.615Z,2.14
2018-12-02T10:25:36.709Z,2.37
2018-12-02T10:28:09.569Z,2.43
2018-12-02T10:30:41.666Z,2.45
2018-12-02T10:33:13.782Z,2.45
2018-12-02T10:35:45.837Z,2.46
2018-12-02T10:38:17.882Z,2.48
2018-12-02T10:40:52.051Z,2.30
2018-12-02T10:43:24.084Z,2.29
2018-12-02T10:45:56.157Z,2.49
2018-12-02T10:48:28.205Z,2.46
2018-12-02T10:51:00.286Z,2.58
2018-12-02T10:53:32.359Z,2.62
2018-12-02T10:56:05.457Z,2.70
2018-12-02T10:58:37.574Z,2.63
2018-12-02T11:01:18.194Z,2.79
2018-12-02T11:03:50.240Z,2.79
2018-12-02T11:06:22.321Z,2.72
2018-12-02T11:08:54.414Z,2.55
2018-12-02T11:11:29.061Z,2.53
2018-12-02T11:14:02.385Z,2.56
2018-12-02T11:16:34.497Z,2.68
2018-12-02T11:19:06.714Z,2.68
2018-12-02T11:21:38.891Z,2.57
2018-12-02T11:24:11.008Z,2.61
2018-12-02T11:26:45.501Z,2.48
2018-12-02T11:29:17.579Z,2.49
2018-12-02T11:31:49.628Z,2.39
2018-12-02T11:34:22.271Z,2.39
2018-12-02T11:36:54.408Z,2.40
2018-12-02T11:39:26.482Z,2.33
2018-12-02T11:41:58.523Z,2.42
2018-12-02T11:44:30.581Z,2.50
2018-12-02T11:47:02.682Z,2.53
2018-12-02T11:49:34.738Z,2.48
2018-12-02T11:52:06.825Z,2.54
2018-12-02T11:54:38.922Z,2.55
2018-12-02T11:57:11.098Z,2.48
2018-12-02T11:59:43.210Z,2.39
2018-12-02T12:02:15.333Z,2.43
2018-12-02T12:04:47.421Z,2.33
2018-12-02T12:07:19.511Z,2.30
2018-12-02T12:09:51.609Z,2.35
2018-12-02T12:12:23.695Z,2.36
2018-12-02T12:14:55.830Z,2.34
2018-12-02T12:17:27.941Z,2.29
2018-12-02T12:20:00.105Z,2.20
2018-12-02T12:22:33.198Z,2.27
2018-12-02T12:25:06.650Z,2.14
2018-12-02T12:27:38.926Z,2.14
2018-12-02T12:30:29.938Z,2.15
2018-12-02T12:33:02.153Z,2.12
2018-12-02T12:35:35.733Z,2.23
2018-12-02T12:38:07.822Z,2.06
2018-12-02T12:40:40.101Z,2.26
2018-12-02T12:43:22.466Z,2.30
2018-12-02T12:45:54.677Z,2.20
2018-12-02T12:48:26.804Z,2.19
2018-12-02T12:50:58.932Z,2.05
2018-12-02T12:53:30.999Z,2.04
2018-12-02T12:56:03.099Z,2.07
2018-12-02T12:58:35.179Z,2.06
2018-12-02T13:01:07.274Z,1.99
2018-12-02T13:03:39.359Z,1.97
2018-12-02T13:06:11.421Z,2.05
2018-12-02T13:08:44.540Z,2.06
2018-12-02T13:11:16.786Z,2.00
2018-12-02T13:13:48.862Z,2.01
2018-12-02T13:16:20.947Z,2.08
2018-12-02T13:18:53.022Z,2.09
2018-12-02T13:21:25.120Z,2.08
2018-12-02T13:23:57.213Z,2.07
2018-12-02T13:26:30.136Z,2.02
2018-12-02T13:29:02.241Z,2.04
2018-12-02T13:31:34.340Z,2.11
2018-12-02T13:34:06.482Z,2.17
2018-12-02T13:36:38.566Z,2.20
2018-12-02T13:39:10.670Z,2.14
2018-12-02T13:41:42.749Z,2.22
2018-12-02T13:44:14.849Z,2.20
2018-12-02T13:46:47.040Z,2.16
2018-12-02T13:49:19.152Z,2.21
2018-12-02T13:51:51.258Z,2.18
2018-12-02T13:54:28.925Z,2.13
2018-12-02T13:57:01.017Z,2.14
2018-12-02T13:59:34.214Z,2.13
2018-12-02T14:02:06.297Z,2.18
2018-12-02T14:04:38.368Z,2.21
2018-12-02T14:07:10.440Z,2.20
2018-12-02T14:09:42.494Z,2.21
2018-12-02T14:12:14.528Z,2.35
2018-12-02T14:14:46.538Z,2.35
2018-12-02T14:17:22.020Z,2.35
2018-12-02T14:19:54.037Z,2.40
2018-12-02T14:22:26.057Z,2.36
2018-12-02T14:25:02.802Z,2.44
2018-12-02T14:27:30.782Z,2.40
2018-12-02T14:30:02.958Z,2.36
2018-12-02T14:32:35.017Z,2.40
2018-12-02T14:35:07.484Z,2.30
2018-12-02T14:37:39.614Z,2.31
2018-12-02T14:40:13.193Z,2.36
2018-12-02T14:42:45.234Z,2.38
2018-12-02T14:45:17.371Z,2.32
2018-12-02T14:47:49.456Z,2.38
2018-12-02T14:50:21.526Z,2.41
2018-12-02T14:52:53.635Z,2.42
2018-12-02T14:55:25.699Z,2.42
2018-12-02T14:57:57.738Z,2.43
2018-12-02T15:00:29.777Z,2.48
2018-12-02T15:03:01.798Z,2.43
2018-12-02T15:05:33.840Z,2.44
2018-12-02T15:08:05.915Z,2.48
2018-12-02T15:10:37.998Z,2.43
2018-12-02T15:13:10.067Z,2.46
2018-12-02T15:15:42.178Z,2.48
2018-12-02T15:18:14.952Z,2.52
2018-12-02T15:20:47.005Z,2.50
2018-12-02T15:23:19.054Z,2.51
2018-12-02T15:25:51.110Z,2.56
2018-12-02T15:28:23.147Z,2.53
2018-12-02T15:30:55.206Z,2.57
2018-12-02T15:33:27.282Z,2.53
2018-12-02T15:35:59.340Z,2.56
2018-12-02T15:38:31.346Z,2.53
2018-12-02T15:41:03.775Z,2.53
2018-12-02T15:43:35.806Z,2.55
2018-12-02T15:46:07.878Z,2.53
2018-12-02T15:48:39.960Z,2.56
2018-12-02T15:51:11.984Z,2.60
2018-12-02T15:53:44.023Z,2.63
2018-12-02T15:56:16.045Z,2.58
2018-12-02T15:58:48.210Z,2.64
2018-12-02T16:01:20.323Z,2.64
2018-12-02T16:03:52.422Z,2.67
2018-12-02T16:06:24.465Z,2.66
2018-12-02T16:08:56.565Z,2.68
2018-12-02T16:11:28.650Z,2.73
2018-12-02T16:14:00.791Z,2.72
2018-12-02T16:16:32.856Z,2.71
2018-12-02T16:19:05.298Z,2.72
2018-12-02T16:21:37.366Z,2.83
2018-12-02T16:24:09.438Z,2.86
2018-12-02T16:26:41.509Z,2.92
2018-12-02T16:29:14.642Z,2.93
2018-12-02T16:31:46.700Z,2.93
2018-12-02T16:34:18.806Z,2.87
2018-12-02T16:36:50.902Z,2.93
2018-12-02T16:39:23.010Z,3.02
2018-12-02T16:41:55.138Z,2.97
2018-12-02T16:44:27.407Z,2.94
2018-12-02T16:46:59.555Z,2.96
2018-12-02T16:49:31.743Z,3.01
2018-12-02T16:52:03.897Z,2.96
2018-12-02T16:54:36.287Z,3.07
2018-12-02T16:57:09.804Z,3.03
2018-12-02T16:59:41.930Z,3.07
2018-12-02T17:02:14.010Z,3.09
2018-12-02T17:04:46.153Z,3.12
2018-12-02T17:07:18.208Z,3.13
2018-12-02T17:09:50.247Z,3.15
2018-12-02T17:12:22.548Z,3.15
2018-12-02T17:14:55.581Z,3.11
2018-12-02T17:17:27.683Z,3.18
2018-12-02T17:19:59.690Z,3.19
2018-12-02T17:22:31.730Z,3.18
2018-12-02T17:25:04.441Z,3.19
2018-12-02T17:27:36.389Z,3.19
2018-12-02T17:30:28.859Z,3.18
2018-12-02T17:33:00.877Z,3.18
2018-12-02T17:35:32.958Z,3.21
2018-12-02T17:38:05.453Z,3.25
2018-12-02T17:40:37.465Z,3.27
2018-12-02T17:43:11.002Z,3.26
2018-12-02T17:45:43.032Z,3.30
2018-12-02T17:48:15.001Z,3.28
2018-12-02T17:50:46.965Z,3.30
2018-12-02T17:53:18.917Z,3.33
2018-12-02T17:55:50.916Z,3.36
2018-12-02T17:58:22.978Z,3.34
2018-12-02T18:00:54.953Z,3.39
2018-12-02T18:03:31.528Z,3.43
2018-12-02T18:06:04.687Z,3.53
2018-12-02T18:08:36.861Z,3.51
2018-12-02T18:11:08.995Z,3.57
2018-12-02T18:13:41.253Z,3.54
2018-12-02T18:16:13.496Z,3.61
2018-12-02T18:18:45.765Z,3.55
2018-12-02T18:21:17.991Z,3.61
2018-12-02T18:23:50.200Z,3.57
2018-12-02T18:26:22.551Z,3.66
2018-12-02T18:28:54.628Z,3.66
2018-12-02T18:31:26.685Z,3.68
2018-12-02T18:33:58.778Z,3.72
2018-12-02T18:36:32.741Z,3.72
2018-12-02T18:39:10.121Z,3.73
2018-12-02T18:41:46.660Z,3.78
2018-12-02T18:44:18.820Z,3.77
2018-12-02T18:46:51.040Z,3.74
2018-12-02T18:49:23.073Z,3.75
2018-12-02T18:51:55.190Z,3.78
2018-12-02T18:54:28.528Z,3.79
2018-12-02T18:56:59.198Z,3.77
2018-12-02T18:59:31.177Z,3.78
2018-12-02T19:02:03.285Z,3.81
2018-12-02T19:04:36.256Z,3.84
2018-12-02T19:07:08.260Z,3.84
2018-12-02T19:09:40.261Z,3.80
2018-12-02T19:12:12.244Z,3.82
2018-12-02T19:14:44.206Z,3.77
2018-12-02T19:17:16.207Z,3.82
2018-12-02T19:19:48.243Z,3.86
2018-12-02T19:22:20.241Z,3.85
2018-12-02T19:24:52.192Z,3.92
2018-12-02T19:27:24.155Z,3.92
2018-12-02T19:29:56.153Z,3.95
2018-12-02T19:32:28.327Z,4.00
2018-12-02T19:35:00.312Z,4.00
2018-12-02T19:37:32.358Z,4.01
2018-12-02T19:40:08.754Z,4.04
2018-12-02T19:42:41.733Z,4.11
2018-12-02T19:45:17.962Z,4.15
2018-12-02T19:47:49.980Z,4.14
2018-12-02T19:50:21.969Z,4.19
2018-12-02T19:52:54.258Z,4.20
2018-12-02T19:55:26.240Z,4.22
2018-12-02T19:57:58.196Z,4.29
2018-12-02T20:00:36.021Z,4.26
2018-12-02T20:03:08.396Z,4.26
2018-12-02T20:05:40.843Z,4.24
2018-12-02T20:08:13.521Z,4.28
2018-12-02T20:10:50.184Z,4.28
2018-12-02T20:13:22.740Z,4.27
2018-12-02T20:16:00.553Z,4.33
2018-12-02T20:18:32.625Z,4.31
2018-12-02T20:21:05.033Z,4.34
2018-12-02T20:23:42.639Z,4.38
2018-12-02T20:26:14.597Z,4.35
2018-12-02T20:28:48.800Z,4.33
2018-12-02T20:31:23.681Z,4.34
2018-12-02T20:33:55.820Z,4.39
2018-12-02T20:36:27.806Z,4.45
2018-12-02T20:38:59.741Z,4.47
2018-12-02T20:41:32.054Z,4.43
2018-12-02T20:44:04.274Z,4.45
2018-12-02T20:46:36.247Z,4.46
2018-12-02T20:49:08.227Z,4.42
2018-12-02T20:51:40.241Z,4.47
2018-12-02T20:54:12.185Z,4.44
2018-12-02T20:56:44.212Z,4.47
2018-12-02T20:59:16.191Z,4.46
2018-12-02T21:01:48.146Z,4.48
2018-12-02T21:04:20.426Z,4.49
2018-12-02T21:06:52.388Z,4.52
2018-12-02T21:09:24.342Z,4.52
2018-12-02T21:11:56.309Z,4.48
2018-12-02T21:14:28.276Z,4.56
2018-12-02T21:17:00.269Z,4.59
2018-12-02T21:19:32.212Z,4.51
2018-12-02T21:22:04.845Z,4.52
2018-12-02T21:24:36.784Z,4.59
2018-12-02T21:27:08.748Z,4.52
2018-12-02T21:29:40.674Z,4.50
2018-12-02T21:32:12.612Z,4.47
2018-12-02T21:34:44.554Z,4.44
2018-12-02T21:37:16.531Z,4.42
2018-12-02T21:39:48.469Z,4.39
2018-12-02T21:42:20.422Z,4.34
2018-12-02T21:44:52.370Z,4.33
2018-12-02T21:47:24.370Z,4.32
2018-12-02T21:49:56.347Z,4.31
2018-12-02T21:52:28.297Z,4.29
2018-12-02T21:55:00.264Z,4.35
2018-12-02T21:57:32.242Z,4.34
2018-12-02T22:00:20.583Z,4.36
2018-12-02T22:02:53.166Z,4.29
2018-12-02T22:05:25.165Z,4.32
2018-12-02T22:07:57.182Z,4.31
2018-12-02T22:10:30.279Z,4.37
2018-12-02T22:13:02.277Z,4.34
2018-12-02T22:15:34.317Z,4.39
2018-12-02T22:18:06.358Z,4.47
2018-12-02T22:20:38.465Z,4.43
2018-12-02T22:23:10.483Z,4.43
2018-12-02T22:25:42.481Z,4.51
2018-12-02T22:28:14.496Z,4.48
2018-12-02T22:30:46.550Z,4.46
2018-12-02T22:33:18.484Z,4.41
2018-12-02T22:35:50.538Z,4.42
2018-12-02T22:38:22.965Z,4.40
2018-12-02T22:40:54.936Z,4.40
2018-12-02T22:43:26.925Z,4.43
2018-12-02T22:45:58.912Z,4.39
2018-12-02T22:48:30.880Z,4.41
2018-12-02T22:51:03.005Z,4.42
2018-12-02T22:53:35.011Z,4.41
2018-12-02T22:56:07.013Z,4.41
2018-12-02T22:58:39.000Z,4.41
2018-12-02T23:01:16.684Z,4.45
2018-12-02T23:03:48.673Z,4.43
2018-12-02T23:06:20.670Z,4.43
2018-12-02T23:08:53.204Z,4.48
2018-12-02T23:11:25.301Z,4.47
2018-12-02T23:13:57.307Z,4.47
2018-12-02T23:16:29.365Z,4.51
2018-12-02T23:19:01.560Z,4.50
2018-12-02T23:21:33.581Z,4.46
2018-12-02T23:24:05.576Z,4.54
2018-12-02T23:26:37.645Z,4.47
2018-12-02T23:29:09.629Z,4.46
2018-12-02T23:31:41.633Z,4.47
2018-12-02T23:34:13.725Z,4.52
2018-12-02T23:36:45.875Z,4.52
2018-12-02T23:39:17.849Z,4.59
2018-12-02T23:41:49.845Z,4.59
2018-12-02T23:44:21.898Z,4.65
2018-12-02T23:46:53.905Z,4.62
2018-12-02T23:49:25.941Z,4.61
2018-12-02T23:51:57.985Z,4.65
2018-12-02T23:54:29.985Z,4.69
2018-12-02T23:57:01.978Z,4.64
2018-12-02T23:59:33.968Z,4.68
